createdAt,value
2018-07-30T00:06:25.225Z,20.80
2018-07-30T00:08:53.883Z,20.50
2018-07-30T00:11:22.544Z,21.37
2018-07-30T00:13:51.234Z,20.50
2018-07-30T00:16:19.892Z,21.03
2018-07-30T00:18:48.663Z,21.27
2018-07-30T00:21:17.360Z,21.80
2018-07-30T00:23:46.082Z,20.37
2018-07-30T00:26:14.717Z,20.37
2018-07-30T00:28:43.802Z,22.30
2018-07-30T00:31:12.461Z,21.07
2018-07-30T00:33:41.131Z,21.80
2018-07-30T00:36:09.866Z,21.40
2018-07-30T00:38:38.568Z,21.20
2018-07-30T00:41:07.213Z,21.07
2018-07-30T00:43:35.886Z,22.80
2018-07-30T00:46:05.053Z,21.67
2018-07-30T00:48:34.742Z,21.10
2018-07-30T00:51:03.498Z,21.03
2018-07-30T00:53:32.175Z,23.10
2018-07-30T00:56:00.851Z,22.23
2018-07-30T00:58:29.513Z,21.97
2018-07-30T01:00:58.177Z,22.33
2018-07-30T01:03:27.166Z,21.87
2018-07-30T01:05:55.853Z,21.70
2018-07-30T01:08:24.510Z,21.17
2018-07-30T01:10:53.161Z,22.83
2018-07-30T01:13:21.835Z,23.80
2018-07-30T01:15:50.473Z,21.90
2018-07-30T01:18:19.119Z,21.77
2018-07-30T01:20:47.818Z,22.00
2018-07-30T01:23:16.459Z,21.00
2018-07-30T01:25:45.234Z,20.07
2018-07-30T01:28:13.859Z,21.97
2018-07-30T01:30:42.519Z,22.07
2018-07-30T01:33:11.205Z,22.70
2018-07-30T01:35:39.864Z,21.27
2018-07-30T01:38:08.499Z,21.97
2018-07-30T01:40:37.126Z,22.00
2018-07-30T01:43:05.844Z,21.13
2018-07-30T01:45:34.511Z,20.33
2018-07-30T01:48:03.134Z,21.83
2018-07-30T01:50:31.770Z,22.43
2018-07-30T01:53:00.450Z,23.33
2018-07-30T01:55:29.158Z,22.60
2018-07-30T01:57:57.822Z,22.00
2018-07-30T02:00:26.470Z,22.27
2018-07-30T02:02:55.173Z,22.03
2018-07-30T02:05:23.843Z,22.80
2018-07-30T02:07:52.491Z,23.30
2018-07-30T02:10:21.143Z,23.07
2018-07-30T02:12:49.856Z,25.57
2018-07-30T02:15:18.483Z,26.17
2018-07-30T02:17:47.187Z,25.90
2018-07-30T02:20:15.918Z,24.80
2018-07-30T02:22:44.564Z,25.57
2018-07-30T02:25:13.251Z,24.83
2018-07-30T02:27:41.935Z,23.30
2018-07-30T02:30:10.588Z,24.17
2018-07-30T02:32:39.238Z,25.40
2018-07-30T02:35:09.086Z,24.07
2018-07-30T02:37:37.824Z,22.77
2018-07-30T02:40:07.196Z,22.90
2018-07-30T02:42:35.911Z,22.70
2018-07-30T02:45:05.408Z,23.67
2018-07-30T02:47:34.063Z,23.57
2018-07-30T02:50:02.985Z,23.20
2018-07-30T02:52:31.969Z,23.43
2018-07-30T02:55:00.664Z,24.70
2018-07-30T02:57:29.329Z,22.07
2018-07-30T02:59:58.027Z,23.00
2018-07-30T03:02:26.715Z,22.27
2018-07-30T03:04:55.376Z,21.30
2018-07-30T03:07:24.065Z,23.13
2018-07-30T03:09:52.782Z,22.60
2018-07-30T03:12:21.451Z,22.07
2018-07-30T03:14:50.171Z,23.23
2018-07-30T03:17:18.807Z,21.97
2018-07-30T03:19:47.478Z,21.93
2018-07-30T03:22:16.461Z,22.87
2018-07-30T03:24:45.195Z,23.50
2018-07-30T03:27:13.836Z,22.20
2018-07-30T03:29:42.541Z,23.10
2018-07-30T03:32:11.226Z,22.47
2018-07-30T03:34:39.881Z,22.73
2018-07-30T03:37:08.528Z,22.00
2018-07-30T03:39:37.168Z,22.47
2018-07-30T03:42:06.188Z,23.23
2018-07-30T03:44:34.823Z,22.33
2018-07-30T03:47:03.461Z,22.53
2018-07-30T03:49:32.112Z,22.07
2018-07-30T03:52:00.754Z,22.67
2018-07-30T03:54:29.405Z,22.97
2018-07-30T03:56:58.066Z,23.13
2018-07-30T03:59:26.770Z,22.37
2018-07-30T04:01:55.492Z,23.33
2018-07-30T04:04:24.138Z,22.90
2018-07-30T04:06:52.917Z,21.47
2018-07-30T04:09:21.659Z,21.87
2018-07-30T04:11:50.311Z,22.13
2018-07-30T04:14:19.018Z,23.20
2018-07-30T04:16:50.529Z,23.73
2018-07-30T04:19:19.763Z,21.47
2018-07-30T04:21:48.490Z,21.23
2018-07-30T04:24:17.222Z,21.57
2018-07-30T04:26:46.917Z,22.77
2018-07-30T04:29:16.495Z,22.47
2018-07-30T04:31:45.299Z,21.73
2018-07-30T04:34:14.010Z,22.30
2018-07-30T04:36:42.658Z,21.83
2018-07-30T04:39:15.401Z,21.30
2018-07-30T04:41:44.699Z,21.33
2018-07-30T04:44:13.475Z,21.53
2018-07-30T04:46:42.155Z,22.27
2018-07-30T04:49:10.830Z,23.70
2018-07-30T04:51:39.544Z,24.20
2018-07-30T04:54:08.244Z,21.57
2018-07-30T04:56:36.910Z,22.23
2018-07-30T04:59:05.613Z,22.37
2018-07-30T05:01:34.369Z,21.30
2018-07-30T05:04:03.107Z,20.93
2018-07-30T05:06:31.822Z,20.90
2018-07-30T05:09:00.500Z,23.03
2018-07-30T05:11:29.142Z,22.40
2018-07-30T05:13:57.803Z,21.57
2018-07-30T05:16:26.435Z,22.43
2018-07-30T05:18:55.533Z,21.13
2018-07-30T05:21:24.235Z,21.33
2018-07-30T05:23:52.887Z,22.57
2018-07-30T05:26:21.567Z,21.90
2018-07-30T05:28:50.221Z,20.93
2018-07-30T05:31:18.912Z,21.87
2018-07-30T05:33:47.593Z,21.50
2018-07-30T05:36:16.279Z,20.47
2018-07-30T05:38:44.955Z,21.47
2018-07-30T05:41:13.622Z,20.23
2018-07-30T05:43:42.388Z,20.57
2018-07-30T05:46:11.102Z,22.83
2018-07-30T05:48:39.962Z,21.57
2018-07-30T05:51:08.662Z,20.40
2018-07-30T05:53:37.312Z,20.00
2018-07-30T05:56:08.005Z,19.60
2018-07-30T05:58:37.718Z,19.90
2018-07-30T06:01:06.487Z,19.83
2018-07-30T06:03:35.162Z,19.43
2018-07-30T06:06:03.888Z,18.67
2018-07-30T06:08:32.563Z,19.53
2018-07-30T06:11:01.343Z,19.00
2018-07-30T06:13:30.495Z,20.87
2018-07-30T06:15:59.231Z,19.97
2018-07-30T06:18:27.958Z,19.73
2018-07-30T06:20:56.724Z,20.63
2018-07-30T06:23:25.446Z,19.80
2018-07-30T06:25:54.195Z,19.90
2018-07-30T06:28:22.867Z,21.17
2018-07-30T06:30:51.576Z,21.30
2018-07-30T06:33:20.352Z,20.90
2018-07-30T06:35:49.106Z,18.67
2018-07-30T06:38:18.832Z,19.10
2018-07-30T06:40:47.556Z,18.77
2018-07-30T06:43:16.228Z,18.80
2018-07-30T06:45:45.243Z,20.27
2018-07-30T06:48:13.920Z,20.60
2018-07-30T06:50:42.651Z,18.70
2018-07-30T06:53:11.519Z,20.57
2018-07-30T06:55:40.175Z,19.77
2018-07-30T06:58:08.970Z,20.77
2018-07-30T07:00:37.684Z,20.47
2018-07-30T07:03:06.431Z,19.57
2018-07-30T07:05:35.186Z,20.33
2018-07-30T07:08:04.554Z,21.10
2018-07-30T07:10:33.534Z,21.93
2018-07-30T07:13:02.331Z,21.97
2018-07-30T07:15:31.015Z,21.17
2018-07-30T07:17:59.806Z,19.80
2018-07-30T07:20:28.442Z,22.07
2018-07-30T07:22:57.115Z,21.70
2018-07-30T07:25:25.933Z,21.97
2018-07-30T07:27:54.600Z,21.03
2018-07-30T07:30:23.366Z,21.63
2018-07-30T07:32:52.118Z,20.80
2018-07-30T07:35:20.845Z,21.40
2018-07-30T07:37:49.620Z,21.40
2018-07-30T07:40:18.315Z,23.17
2018-07-30T07:42:47.041Z,22.77
2018-07-30T07:45:15.791Z,22.07
2018-07-30T07:47:44.459Z,22.30
2018-07-30T07:50:13.305Z,23.10
2018-07-30T07:52:41.944Z,24.47
2018-07-30T07:55:10.802Z,24.87
2018-07-30T07:57:39.505Z,25.40
2018-07-30T08:00:10.112Z,23.57
2018-07-30T08:02:38.832Z,23.97
2018-07-30T08:05:06.869Z,23.83
2018-07-30T08:07:36.240Z,24.87
2018-07-30T08:10:05.541Z,22.20
2018-07-30T08:12:34.284Z,23.43
2018-07-30T08:15:03.023Z,23.80
2018-07-30T08:17:31.755Z,22.57
2018-07-30T08:20:00.435Z,24.17
2018-07-30T08:22:29.162Z,24.43
2018-07-30T08:24:57.856Z,24.00
2018-07-30T08:27:26.562Z,23.03
2018-07-30T08:29:55.806Z,23.07
2018-07-30T08:32:24.460Z,23.10
2018-07-30T08:34:53.203Z,23.37
2018-07-30T08:37:21.923Z,22.60
2018-07-30T08:39:50.586Z,23.70
2018-07-30T08:42:19.321Z,22.63
2018-07-30T08:44:47.968Z,21.97
2018-07-30T08:47:16.659Z,21.53
2018-07-30T08:49:45.740Z,19.53
2018-07-30T08:52:14.479Z,20.47
2018-07-30T08:54:43.144Z,21.40
2018-07-30T08:57:11.839Z,20.07
2018-07-30T08:59:40.595Z,22.75
2018-07-30T09:02:09.357Z,21.17
2018-07-30T09:04:38.052Z,23.00
2018-07-30T09:07:06.780Z,19.98
2018-07-30T09:09:35.499Z,18.03
2018-07-30T09:12:04.211Z,17.97
2018-07-30T09:14:32.891Z,16.93
2018-07-30T09:17:01.659Z,18.70
2018-07-30T09:19:30.414Z,18.23
2018-07-30T09:21:59.100Z,17.40
2018-07-30T09:24:27.738Z,17.30
2018-07-30T09:26:56.427Z,14.47
2018-07-30T09:29:25.065Z,15.73
2018-07-30T09:31:53.751Z,17.67
2018-07-30T09:34:22.383Z,18.73
2018-07-30T09:36:51.054Z,17.13
2018-07-30T09:39:19.775Z,19.02
2018-07-30T09:41:48.434Z,18.37
2018-07-30T09:44:17.111Z,23.47
2018-07-30T09:46:45.818Z,18.80
2018-07-30T09:49:14.497Z,20.80
2018-07-30T09:51:43.268Z,19.17
2018-07-30T09:54:11.947Z,18.57
2018-07-30T09:56:40.634Z,18.17
2018-07-30T09:59:09.339Z,15.63
2018-07-30T10:01:38.277Z,13.88
2018-07-30T10:04:06.997Z,14.97
2018-07-30T10:06:35.651Z,15.70
2018-07-30T10:09:06.732Z,14.75
2018-07-30T10:11:35.376Z,15.45
2018-07-30T10:14:04.249Z,16.17
2018-07-30T10:16:32.951Z,15.68
2018-07-30T10:19:01.686Z,16.10
2018-07-30T10:21:30.345Z,15.72
2018-07-30T10:23:59.237Z,17.30
2018-07-30T10:26:27.951Z,17.85
2018-07-30T10:28:56.609Z,18.42
2018-07-30T10:31:25.347Z,17.52
2018-07-30T10:33:54.375Z,16.32
2018-07-30T10:36:23.056Z,17.62
2018-07-30T10:38:51.744Z,18.40
2018-07-30T10:41:20.393Z,17.30
2018-07-30T10:43:49.186Z,15.95
2018-07-30T10:46:17.821Z,14.38
2018-07-30T10:48:46.551Z,13.65
2018-07-30T10:51:15.215Z,13.35
2018-07-30T10:53:43.946Z,13.27
2018-07-30T10:56:12.575Z,12.17
2018-07-30T10:58:41.392Z,11.90
2018-07-30T11:01:10.068Z,10.23
2018-07-30T11:03:38.748Z,11.67
2018-07-30T11:06:07.418Z,10.40
2018-07-30T11:08:36.127Z,10.80
2018-07-30T11:11:04.863Z,11.90
2018-07-30T11:13:33.666Z,10.90
2018-07-30T11:16:02.337Z,11.85
2018-07-30T11:18:31.062Z,11.50
2018-07-30T11:20:59.771Z,11.73
2018-07-30T11:23:28.434Z,10.77
2018-07-30T11:25:57.100Z,10.32
2018-07-30T11:28:25.798Z,10.60
2018-07-30T11:30:54.520Z,9.68
2018-07-30T11:33:23.162Z,9.33
2018-07-30T11:35:51.845Z,9.70
2018-07-30T11:38:20.517Z,10.73
2018-07-30T11:40:49.209Z,12.33
2018-07-30T11:43:17.937Z,12.87
2018-07-30T11:45:46.714Z,14.50
2018-07-30T11:48:15.411Z,14.87
2018-07-30T11:50:44.562Z,13.93
2018-07-30T11:53:13.247Z,13.17
2018-07-30T11:55:41.926Z,13.40
2018-07-30T11:58:10.626Z,12.43
2018-07-30T12:00:39.409Z,11.93
2018-07-30T12:03:08.132Z,12.07
2018-07-30T12:05:36.847Z,14.07
2018-07-30T12:08:05.577Z,11.47
2018-07-30T12:10:34.293Z,12.07
2018-07-30T12:13:02.977Z,12.07
2018-07-30T12:15:31.659Z,10.77
2018-07-30T12:18:00.387Z,10.57
2018-07-30T12:20:29.072Z,10.27
2018-07-30T12:22:57.833Z,11.33
2018-07-30T12:25:26.769Z,11.70
2018-07-30T12:27:56.376Z,11.70
2018-07-30T12:30:25.174Z,11.60
2018-07-30T12:32:53.831Z,11.33
2018-07-30T12:35:22.506Z,10.00
2018-07-30T12:37:51.176Z,10.83
2018-07-30T12:40:19.940Z,10.67
2018-07-30T12:42:48.566Z,11.40
2018-07-30T12:45:21.317Z,9.60
2018-07-30T12:47:50.080Z,12.50
2018-07-30T12:50:18.836Z,9.87
2018-07-30T12:52:47.593Z,9.65
2018-07-30T12:55:16.284Z,10.85
2018-07-30T12:57:44.944Z,11.20
2018-07-30T13:00:13.622Z,11.28
2018-07-30T13:02:42.302Z,10.40
2018-07-30T13:05:11.009Z,10.43
2018-07-30T13:07:39.659Z,10.43
2018-07-30T13:10:08.433Z,9.70
2018-07-30T13:12:37.075Z,10.88
2018-07-30T13:15:05.831Z,11.03
2018-07-30T13:17:34.655Z,9.85
2018-07-30T13:20:03.436Z,10.68
2018-07-30T13:22:32.061Z,9.43
2018-07-30T13:25:00.794Z,11.22
2018-07-30T13:27:29.457Z,10.25
2018-07-30T13:29:58.143Z,12.75
2018-07-30T13:32:26.790Z,10.95
2018-07-30T13:34:55.447Z,14.00
2018-07-30T13:37:24.291Z,13.85
2018-07-30T13:39:52.961Z,9.38
2018-07-30T13:42:21.626Z,9.40
2018-07-30T13:44:50.370Z,15.05
2018-07-30T13:47:19.010Z,11.38
2018-07-30T13:49:47.618Z,10.95
2018-07-30T13:52:16.270Z,12.30
2018-07-30T13:54:45.015Z,13.75
2018-07-30T13:57:13.679Z,12.15
2018-07-30T13:59:42.357Z,10.53
2018-07-30T14:02:10.992Z,10.90
2018-07-30T14:04:39.610Z,11.22
2018-07-30T14:07:08.349Z,10.85
2018-07-30T14:09:37.066Z,11.05
2018-07-30T14:12:05.721Z,9.43
2018-07-30T14:14:34.419Z,11.05
2018-07-30T14:17:03.078Z,10.63
2018-07-30T14:19:31.758Z,9.38
2018-07-30T14:22:00.410Z,11.65
2018-07-30T14:24:29.042Z,8.95
2018-07-30T14:26:57.656Z,9.73
2018-07-30T14:29:26.329Z,10.60
2018-07-30T14:31:54.996Z,13.45
2018-07-30T14:34:23.708Z,9.00
2018-07-30T14:36:52.461Z,12.35
2018-07-30T14:39:21.807Z,8.20
2018-07-30T14:41:50.511Z,9.20
2018-07-30T14:44:19.145Z,8.80
2018-07-30T14:46:47.754Z,8.03
2018-07-30T14:49:16.362Z,9.93
2018-07-30T14:51:45.086Z,11.20
2018-07-30T14:54:13.713Z,11.60
2018-07-30T14:56:42.437Z,9.58
2018-07-30T14:59:11.177Z,9.93
2018-07-30T15:01:39.742Z,12.75
2018-07-30T15:04:08.455Z,9.98
2018-07-30T15:06:37.231Z,8.63
2018-07-30T15:09:09.671Z,9.55
2018-07-30T15:11:38.752Z,9.78
2018-07-30T15:14:07.637Z,10.30
2018-07-30T15:16:36.743Z,13.80
2018-07-30T15:19:05.999Z,9.85
2018-07-30T15:21:34.595Z,10.95
2018-07-30T15:24:03.280Z,10.48
2018-07-30T15:26:31.902Z,11.60
2018-07-30T15:29:00.514Z,10.03
2018-07-30T15:31:29.126Z,9.98
2018-07-30T15:33:58.178Z,11.23
2018-07-30T15:36:26.883Z,9.83
2018-07-30T15:38:55.516Z,9.87
2018-07-30T15:41:24.138Z,8.93
2018-07-30T15:43:52.739Z,8.23
2018-07-30T15:46:21.362Z,12.43
2018-07-30T15:48:49.997Z,7.17
2018-07-30T15:51:18.638Z,7.67
2018-07-30T15:53:47.308Z,7.40
2018-07-30T15:56:16.480Z,7.40
2018-07-30T15:58:45.114Z,7.83
2018-07-30T16:01:13.782Z,10.10
2018-07-30T16:03:42.420Z,10.93
2018-07-30T16:06:11.044Z,11.77
2018-07-30T16:08:40.140Z,10.93
2018-07-30T16:11:08.899Z,9.13
2018-07-30T16:13:37.573Z,12.30
2018-07-30T16:16:06.374Z,9.93
2018-07-30T16:18:35.088Z,8.83
2018-07-30T16:21:03.822Z,11.13
2018-07-30T16:23:32.553Z,12.90
2018-07-30T16:26:01.203Z,23.27
2018-07-30T16:28:29.903Z,15.60
2018-07-30T16:30:58.576Z,9.63
2018-07-30T16:33:27.227Z,7.07
2018-07-30T16:35:55.884Z,7.53
2018-07-30T16:38:24.538Z,7.47
2018-07-30T16:40:53.231Z,31.80
2018-07-30T16:43:21.912Z,11.90
2018-07-30T16:45:50.631Z,8.47
2018-07-30T16:48:19.466Z,15.00
2018-07-30T16:50:48.101Z,7.00
2018-07-30T16:53:17.482Z,5.80
2018-07-30T16:55:46.171Z,6.67
2018-07-30T16:58:15.130Z,8.13
2018-07-30T17:00:43.840Z,7.10
2018-07-30T17:03:12.613Z,6.20
2018-07-30T17:05:41.299Z,9.33
2018-07-30T17:08:10.032Z,10.07
2018-07-30T17:10:38.632Z,9.70
2018-07-30T17:13:07.308Z,8.13
2018-07-30T17:15:36.113Z,5.37
2018-07-30T17:18:04.986Z,7.73
2018-07-30T17:20:34.222Z,5.70
2018-07-30T17:23:02.971Z,6.53
2018-07-30T17:25:31.595Z,7.27
2018-07-30T17:28:00.278Z,12.83
2018-07-30T17:30:28.967Z,12.80
2018-07-30T17:32:57.616Z,8.80
2018-07-30T17:35:26.320Z,9.20
2018-07-30T17:37:55.032Z,9.77
2018-07-30T17:40:23.754Z,10.20
2018-07-30T17:42:52.486Z,9.10
2018-07-30T17:45:21.210Z,14.27
2018-07-30T17:47:50.493Z,13.17
2018-07-30T17:50:21.746Z,15.27
2018-07-30T17:52:51.888Z,14.87
2018-07-30T17:55:20.653Z,11.77
2018-07-30T17:57:49.341Z,15.23
2018-07-30T18:00:18.035Z,22.27
2018-07-30T18:02:46.742Z,19.70
2018-07-30T18:05:18.382Z,16.80
2018-07-30T18:07:48.552Z,17.10
2018-07-30T18:10:17.269Z,15.53
2018-07-30T18:12:46.184Z,12.77
2018-07-30T18:15:15.039Z,11.87
2018-07-30T18:17:43.750Z,13.90
2018-07-30T18:20:12.530Z,17.27
2018-07-30T18:22:41.362Z,17.53
2018-07-30T18:25:10.127Z,14.83
2018-07-30T18:27:38.810Z,15.43
2018-07-30T18:30:07.775Z,15.83
2018-07-30T18:32:36.494Z,17.77
2018-07-30T18:35:05.398Z,12.57
2018-07-30T18:37:34.016Z,15.30
2018-07-30T18:40:02.907Z,16.27
2018-07-30T18:42:31.579Z,16.30
2018-07-30T18:45:00.369Z,17.47
2018-07-30T18:47:29.038Z,17.30
2018-07-30T18:49:58.015Z,19.93
2018-07-30T18:52:26.764Z,12.73
2018-07-30T18:54:55.522Z,18.73
2018-07-30T18:57:24.203Z,15.30
2018-07-30T18:59:52.978Z,19.17
2018-07-30T19:02:21.663Z,19.00
2018-07-30T19:04:50.385Z,15.80
2018-07-30T19:07:19.092Z,14.00
2018-07-30T19:09:47.794Z,13.30
2018-07-30T19:12:16.980Z,16.37
2018-07-30T19:14:45.601Z,11.90
2018-07-30T19:17:14.294Z,12.90
2018-07-30T19:19:43.162Z,14.33
2018-07-30T19:22:11.868Z,13.10
2018-07-30T19:24:40.719Z,13.27
2018-07-30T19:27:09.440Z,16.07
2018-07-30T19:29:38.364Z,19.37
2018-07-30T19:32:07.050Z,16.07
2018-07-30T19:34:35.690Z,13.33
2018-07-30T19:37:04.394Z,15.03
2018-07-30T19:39:33.068Z,15.23
2018-07-30T19:42:01.815Z,15.33
2018-07-30T19:44:30.542Z,15.57
2018-07-30T19:46:59.341Z,12.43
2018-07-30T19:49:28.005Z,14.70
2018-07-30T19:51:56.658Z,16.60
2018-07-30T19:54:25.332Z,17.07
2018-07-30T19:56:54.059Z,13.53
2018-07-30T19:59:23.095Z,16.80
2018-07-30T20:01:52.280Z,15.23
2018-07-30T20:04:20.941Z,13.50
2018-07-30T20:06:49.823Z,13.10
2018-07-30T20:09:19.115Z,16.27
2018-07-30T20:11:48.237Z,15.47
2018-07-30T20:14:17.293Z,16.40
2018-07-30T20:16:46.070Z,26.37
2018-07-30T20:19:14.751Z,33.37
2018-07-30T20:21:44.330Z,35.53
2018-07-30T20:24:12.968Z,25.57
2018-07-30T20:26:41.616Z,45.67
2018-07-30T20:29:10.337Z,65.70
2018-07-30T20:31:39.084Z,66.67
2018-07-30T20:34:08.009Z,49.43
2018-07-30T20:36:37.119Z,27.80
2018-07-30T20:39:08.135Z,21.20
2018-07-30T20:41:37.017Z,20.37
2018-07-30T20:44:05.732Z,18.73
2018-07-30T20:46:34.534Z,17.60
2018-07-30T20:49:03.226Z,16.90
2018-07-30T20:51:32.467Z,15.23
2018-07-30T20:54:01.122Z,16.00
2018-07-30T20:56:29.858Z,17.63
2018-07-30T20:58:58.558Z,15.20
2018-07-30T21:01:27.261Z,12.97
2018-07-30T21:03:55.898Z,16.47
2018-07-30T21:06:24.653Z,14.27
2018-07-30T21:08:53.295Z,13.40
2018-07-30T21:11:22.310Z,13.63
2018-07-30T21:13:50.952Z,11.27
2018-07-30T21:16:19.630Z,12.43
2018-07-30T21:18:48.295Z,14.80
2018-07-30T21:21:17.094Z,11.00
2018-07-30T21:23:45.741Z,12.40
2018-07-30T21:26:14.416Z,11.10
2018-07-30T21:28:43.077Z,11.50
2018-07-30T21:31:11.723Z,12.37
2018-07-30T21:33:40.374Z,12.13
2018-07-30T21:36:08.991Z,13.20
2018-07-30T21:38:37.656Z,13.50
2018-07-30T21:41:06.588Z,12.20
2018-07-30T21:43:35.478Z,13.67
2018-07-30T21:46:04.345Z,11.87
2018-07-30T21:48:33.098Z,13.03
2018-07-30T21:51:01.751Z,11.50
2018-07-30T21:53:30.359Z,11.33
2018-07-30T21:55:58.986Z,13.03
2018-07-30T21:58:27.640Z,10.73
2018-07-30T22:00:57.383Z,11.80
2018-07-30T22:03:27.286Z,17.83
2018-07-30T22:05:56.259Z,17.27
2018-07-30T22:08:25.138Z,15.07
2018-07-30T22:10:53.843Z,15.43
2018-07-30T22:13:23.452Z,12.63
2018-07-30T22:15:52.228Z,13.03
2018-07-30T22:18:20.974Z,12.07
2018-07-30T22:20:49.783Z,11.47
2018-07-30T22:23:18.421Z,11.57
2018-07-30T22:25:47.120Z,12.50
2018-07-30T22:28:16.362Z,11.27
2018-07-30T22:30:45.011Z,9.53
2018-07-30T22:33:13.853Z,10.13
2018-07-30T22:35:42.478Z,10.60
2018-07-30T22:38:11.194Z,10.63
2018-07-30T22:40:39.810Z,11.60
2018-07-30T22:43:07.825Z,10.73
2018-07-30T22:45:36.454Z,10.50
2018-07-30T22:48:05.226Z,11.10
2018-07-30T22:50:34.111Z,11.23
2018-07-30T22:53:02.806Z,9.73
2018-07-30T22:55:31.498Z,11.63
2018-07-30T22:58:00.143Z,10.20
2018-07-30T23:00:28.782Z,10.00
2018-07-30T23:02:57.459Z,9.37
2018-07-30T23:05:26.243Z,9.10
2018-07-30T23:07:54.977Z,9.57
2018-07-30T23:10:23.613Z,10.53
2018-07-30T23:12:52.395Z,9.47
2018-07-30T23:15:21.070Z,9.70
2018-07-30T23:17:49.750Z,10.87
2018-07-30T23:20:18.350Z,12.70
2018-07-30T23:22:47.056Z,10.90
2018-07-30T23:25:15.692Z,12.87
2018-07-30T23:27:44.358Z,10.40
2018-07-30T23:30:13.049Z,9.30
2018-07-30T23:32:41.757Z,9.90
2018-07-30T23:36:39.552Z,9.90
2018-07-30T23:39:10.373Z,11.50
2018-07-30T23:41:39.406Z,9.87
2018-07-30T23:44:08.321Z,9.37
2018-07-30T23:46:37.106Z,10.23
2018-07-30T23:49:06.015Z,10.27
2018-07-30T23:51:34.659Z,10.10
2018-07-30T23:54:03.398Z,9.93
2018-07-30T23:56:32.024Z,11.60
2018-07-30T23:59:00.755Z,12.73
